Time;durP1;ratioP1;P1;durP2;ratioP2;P2;SDS_P1;SDS_P2;PMS_P1;PMS_P2;Temp;Humidity;BMP_temperature;BMP_pressure;BME280_temperature;BME280_humidity;BME280_pressure;Samples;Min_cycle;Max_cycle;Signal;HPM_P1;HPM_P2
2022/11/17 00:02:05;;;;;;;2.83;0.98;;;19.10;85.00;;;;;;6011975;23;45721;-68
2022/11/17 00:04:40;;;;;;;1.48;0.73;;;19.10;84.80;;;;;;6015940;23;45282;-69
2022/11/17 00:07:07;;;;;;;1.85;0.98;;;19.10;84.90;;;;;;6006435;23;47427;-69
2022/11/17 00:09:54;;;;;;;1.95;0.95;;;19.00;85.90;;;;;;6005887;23;45283;-69
2022/11/17 00:15:20;;;;;;;1.45;0.80;;;19.10;85.00;;;;;;6011060;23;45345;-68
2022/11/17 00:17:47;;;;;;;1.40;0.80;;;19.10;85.00;;;;;;6007066;23;46615;-68
2022/11/17 00:23:08;;;;;;;1.42;0.90;;;19.10;84.80;;;;;;6004468;23;45341;-69
2022/11/17 00:25:48;;;;;;;1.08;0.80;;;19.00;84.50;;;;;;6009627;23;45224;-68
2022/11/17 00:34:39;;;;;;;1.20;0.80;;;19.10;84.80;;;;;;6012250;23;45405;-69
2022/11/17 00:37:21;;;;;;;0.95;0.77;;;19.00;84.70;;;;;;5999140;23;45431;-68
2022/11/17 00:39:48;;;;;;;3.15;0.90;;;19.00;84.60;;;;;;5997866;23;46329;-68
2022/11/17 00:42:26;;;;;;;1.10;0.70;;;19.00;84.50;;;;;;6007417;23;45183;-68
2022/11/17 00:45:02;;;;;;;1.05;0.65;;;19.00;84.80;;;;;;6012938;23;45231;-68
2022/11/17 00:47:43;;;;;;;0.90;0.50;;;19.00;84.60;;;;;;6005422;23;45331;-68
2022/11/17 00:50:11;;;;;;;0.82;0.55;;;19.00;84.50;;;;;;6004561;23;46305;-68
2022/11/17 00:52:51;;;;;;;1.17;0.77;;;19.00;84.50;;;;;;6016573;23;45243;-68
2022/11/17 00:55:29;;;;;;;1.02;0.70;;;19.00;84.60;;;;;;6029364;23;45226;-68
2022/11/17 00:57:57;;;;;;;2.70;0.90;;;19.00;84.80;;;;;;6010304;23;45354;-68
2022/11/17 01:00:40;;;;;;;1.15;0.70;;;19.10;84.80;;;;;;6011838;23;46330;-68
2022/11/17 01:03:07;;;;;;;1.73;0.68;;;19.10;84.90;;;;;;5996501;23;45699;-68
2022/11/17 01:06:13;;;;;;;0.60;0.60;;;19.00;84.90;;;;;;6016608;23;45333;-68
2022/11/17 01:08:40;;;;;;;1.58;0.77;;;19.10;84.90;;;;;;6010222;23;45205;-69
2022/11/17 01:11:19;;;;;;;1.42;0.77;;;19.10;84.90;;;;;;6009218;23;46453;-68
2022/11/17 01:14:13;;;;;;;1.10;0.70;;;19.10;84.90;;;;;;6004718;23;45185;-68
2022/11/17 01:16:40;;;;;;;1.58;0.80;;;19.10;84.90;;;;;;5997028;23;45142;-68
2022/11/17 01:19:19;;;;;;;1.75;0.90;;;19.00;84.80;;;;;;6002482;23;45260;-68
2022/11/17 01:21:46;;;;;;;1.20;0.60;;;19.00;84.50;;;;;;6011091;23;47141;-69
2022/11/17 01:24:27;;;;;;;1.10;0.50;;;19.00;84.60;;;;;;6004955;23;45471;-68
2022/11/17 01:26:54;;;;;;;1.98;0.80;;;19.00;84.50;;;;;;6023676;23;45330;-68
2022/11/17 01:29:22;;;;;;;0.75;0.50;;;19.10;84.60;;;;;;6014643;23;45353;-68
2022/11/17 01:31:51;;;;;;;0.88;0.50;;;19.00;84.50;;;;;;6006292;23;47568;-69
2022/11/17 01:34:29;;;;;;;0.63;0.50;;;19.00;84.50;;;;;;6012356;23;45798;-68
2022/11/17 01:39:40;;;;;;;1.23;0.93;;;19.00;84.40;;;;;;5996230;23;45357;-68
2022/11/17 01:42:44;;;;;;;1.98;0.70;;;19.00;84.40;;;;;;6009668;23;47350;-68
2022/11/17 01:45:33;;;;;;;0.60;0.40;;;19.00;84.30;;;;;;6007054;23;45590;-68
2022/11/17 01:48:13;;;;;;;0.95;0.52;;;19.00;84.30;;;;;;6025841;23;45289;-68
2022/11/17 01:50:52;;;;;;;1.13;0.77;;;19.00;84.40;;;;;;6006000;23;45493;-69
2022/11/17 01:53:38;;;;;;;0.55;0.50;;;19.00;84.40;;;;;;6025444;23;47126;-68
2022/11/17 01:56:48;;;;;;;1.08;0.60;;;19.00;84.30;;;;;;6003587;23;45337;-68
2022/11/17 01:59:29;;;;;;;0.70;0.50;;;19.00;84.50;;;;;;5999114;23;45407;-68
2022/11/17 02:02:06;;;;;;;1.48;0.55;;;19.00;84.60;;;;;;5999700;23;45540;-68
2022/11/17 02:08:01;;;;;;;0.80;0.50;;;19.00;84.50;;;;;;6002324;23;45153;-68
2022/11/17 02:14:08;;;;;;;0.75;0.57;;;19.10;84.70;;;;;;6004200;23;45195;-68
2022/11/17 02:16:48;;;;;;;1.58;0.50;;;19.10;84.70;;;;;;5977712;23;46115;-68
2022/11/17 02:22:45;;;;;;;1.05;0.60;;;19.00;84.50;;;;;;5979020;23;45388;-68
2022/11/17 02:26:32;;;;;;;0.88;0.45;;;19.00;84.30;;;;;;5980813;23;45685;-68
2022/11/17 02:29:23;;;;;;;0.63;0.40;;;19.00;84.40;;;;;;5964808;23;46590;-68
2022/11/17 02:32:08;;;;;;;0.60;0.50;;;19.00;84.20;;;;;;5979314;23;45437;-68
2022/11/17 02:35:18;;;;;;;0.55;0.40;;;19.00;84.40;;;;;;5985621;23;45292;-68
2022/11/17 02:38:13;;;;;;;0.38;0.32;;;19.00;84.50;;;;;;5971746;23;45636;-68
2022/11/17 02:40:45;;;;;;;0.77;0.77;;;19.00;84.30;;;;;;5969075;23;46451;-68
2022/11/17 02:47:02;;;;;;;0.57;0.40;;;19.00;84.30;;;;;;5979336;23;45451;-68
2022/11/17 02:52:31;;;;;;;0.65;0.40;;;19.00;84.20;;;;;;5975920;23;45948;-68
2022/11/17 02:58:33;;;;;;;0.77;0.40;;;19.10;84.30;;;;;;5978247;23;45324;-68
2022/11/17 03:02:02;;;;;;;0.95;0.32;;;19.00;84.50;;;;;;5978063;23;45457;-68
2022/11/17 03:04:44;;;;;;;0.45;0.43;;;19.00;84.50;;;;;;5986564;23;47312;-69
2022/11/17 03:07:45;;;;;;;0.73;0.40;;;19.10;84.50;;;;;;5977891;23;45303;-69
2022/11/17 03:10:28;;;;;;;1.95;0.47;;;19.10;84.60;;;;;;5979896;23;45206;-68
2022/11/17 03:16:14;;;;;;;1.10;0.47;;;19.10;84.50;;;;;;5981897;23;45292;-68
2022/11/17 03:19:08;;;;;;;0.77;0.50;;;19.10;84.60;;;;;;5968329;23;45981;-68
2022/11/17 03:21:47;;;;;;;1.00;0.30;;;19.00;84.50;;;;;;5975021;23;45436;-68
2022/11/17 03:24:47;;;;;;;0.80;0.40;;;19.00;84.30;;;;;;5984137;23;45345;-68
2022/11/17 03:27:27;;;;;;;0.70;0.30;;;19.00;84.40;;;;;;5970209;23;47586;-68
2022/11/17 03:30:07;;;;;;;0.68;0.47;;;19.00;84.30;;;;;;5990197;23;45450;-68
2022/11/17 03:32:39;;;;;;;0.45;0.25;;;19.00;84.40;;;;;;5988041;23;45388;-68
2022/11/17 03:38:53;;;;;;;7.10;0.43;;;19.00;84.50;;;;;;5973447;23;46932;-68
2022/11/17 03:41:33;;;;;;;0.40;0.30;;;19.00;84.30;;;;;;5977927;23;45278;-68
2022/11/17 03:44:12;;;;;;;0.57;0.30;;;19.00;84.20;;;;;;5977858;23;45285;-68
2022/11/17 03:46:56;;;;;;;0.75;0.40;;;19.00;84.30;;;;;;5971326;23;45699;-68
2022/11/17 03:49:38;;;;;;;0.60;0.40;;;19.00;84.40;;;;;;5972449;23;46761;-69
2022/11/17 03:52:18;;;;;;;0.52;0.38;;;19.00;84.40;;;;;;5984096;23;45386;-68
2022/11/17 03:54:46;;;;;;;0.40;0.32;;;19.00;84.40;;;;;;5974615;23;45227;-68
2022/11/17 03:57:32;;;;;;;0.88;0.30;;;19.10;84.50;;;;;;5986655;23;45455;-68
2022/11/17 04:00:05;;;;;;;0.30;0.30;;;19.00;84.50;;;;;;5992993;23;47482;-69
2022/11/17 04:02:33;;;;;;;0.63;0.45;;;19.00;84.50;;;;;;5982451;23;45449;-68
2022/11/17 04:05:12;;;;;;;0.32;0.30;;;19.00;84.20;;;;;;5982563;23;45186;-68
2022/11/17 04:16:43;;;;;;;0.32;0.30;;;19.00;84.20;;;;;;5982515;23;45334;-69
2022/11/17 04:19:19;;;;;;;0.75;0.35;;;19.00;84.00;;;;;;5983110;23;45474;-69
2022/11/17 04:21:46;;;;;;;1.13;0.40;;;19.00;83.90;;;;;;5976109;23;46211;-69
2022/11/17 04:24:13;;;;;;;0.30;0.20;;;19.00;84.50;;;;;;5988810;23;45250;-68
2022/11/17 04:29:46;;;;;;;0.50;0.30;;;19.00;84.00;;;;;;5985286;23;45417;-69
2022/11/17 04:32:15;;;;;;;0.60;0.20;;;19.00;83.90;;;;;;5981648;23;47325;-69
2022/11/17 04:34:41;;;;;;;0.20;0.20;;;19.00;83.90;;;;;;5973375;23;45302;-69
2022/11/17 04:37:16;;;;;;;0.93;0.28;;;19.00;83.90;;;;;;5991953;23;45351;-69
2022/11/17 04:39:52;;;;;;;1.42;0.30;;;19.00;84.10;;;;;;5970137;23;45466;-69
2022/11/17 04:42:19;;;;;;;0.20;0.20;;;19.00;84.00;;;;;;5979042;23;47370;-69
2022/11/17 04:44:46;;;;;;;0.93;0.30;;;19.00;83.90;;;;;;5970504;23;45547;-68
2022/11/17 04:47:14;;;;;;;0.50;0.30;;;19.00;83.80;;;;;;5983854;23;45580;-68
2022/11/17 04:49:52;;;;;;;0.52;0.32;;;18.90;84.00;;;;;;5994683;23;45398;-68
2022/11/17 04:52:21;;;;;;;0.15;0.15;;;19.00;84.00;;;;;;5987804;23;46585;-68
2022/11/17 04:54:47;;;;;;;0.50;0.20;;;19.00;84.10;;;;;;5968060;23;45316;-69
2022/11/17 04:57:39;;;;;;;0.30;0.30;;;19.00;84.00;;;;;;5978900;23;45626;-68
2022/11/17 05:00:20;;;;;;;0.20;0.20;;;19.00;84.20;;;;;;5984198;23;45261;-68
2022/11/17 05:03:03;;;;;;;0.70;0.50;;;19.10;84.30;;;;;;5968987;23;46497;-68
2022/11/17 05:05:40;;;;;;;0.30;0.20;;;19.00;84.30;;;;;;5981640;23;45385;-68
2022/11/17 05:08:07;;;;;;;0.20;0.20;;;19.00;84.20;;;;;;5986614;23;45470;-68
2022/11/17 05:13:34;;;;;;;0.28;0.28;;;19.00;84.20;;;;;;5977577;23;45389;-68
2022/11/17 05:18:51;;;;;;;1.35;0.20;;;19.00;83.90;;;;;;5972127;23;45540;-68
2022/11/17 05:21:35;;;;;;;0.28;0.20;;;19.00;84.00;;;;;;5971471;23;45400;-68
2022/11/17 05:24:01;;;;;;;0.20;0.20;;;19.00;83.80;;;;;;5994700;23;46356;-68
2022/11/17 05:30:18;;;;;;;0.25;0.15;;;19.00;83.80;;;;;;5975989;23;45690;-68
2022/11/17 05:32:48;;;;;;;0.50;0.22;;;19.00;83.90;;;;;;5974405;23;45449;-68
2022/11/17 05:35:18;;;;;;;0.50;0.20;;;19.00;83.90;;;;;;5978975;23;47221;-68
2022/11/17 05:37:50;;;;;;;0.30;0.20;;;19.00;84.00;;;;;;5968049;23;45447;-69
2022/11/17 05:40:26;;;;;;;1.08;0.20;;;19.00;83.80;;;;;;5977977;23;45458;-68
2022/11/17 05:42:54;;;;;;;0.20;0.20;;;19.00;83.70;;;;;;5984033;23;45263;-68
2022/11/17 05:48:55;;;;;;;0.30;0.30;;;19.00;83.80;;;;;;5965656;23;45297;-68
2022/11/17 05:51:23;;;;;;;0.25;0.20;;;19.00;83.70;;;;;;5975996;23;45349;-68
2022/11/17 05:54:10;;;;;;;0.25;0.20;;;19.00;84.00;;;;;;5981226;23;45352;-68
2022/11/17 05:57:02;;;;;;;0.20;0.20;;;19.00;83.90;;;;;;5983447;23;47559;-69
2022/11/17 05:59:35;;;;;;;0.30;0.30;;;19.00;84.10;;;;;;5970178;23;45268;-69
2022/11/17 06:02:16;;;;;;;0.40;0.30;;;19.00;84.10;;;;;;5970008;23;45297;-69
2022/11/17 06:05:02;;;;;;;0.68;0.30;;;19.00;84.20;;;;;;5968335;23;45297;-69
2022/11/17 06:07:31;;;;;;;0.17;0.17;;;19.10;84.20;;;;;;5989381;23;47515;-68
2022/11/17 06:09:58;;;;;;;0.65;0.20;;;19.00;84.10;;;;;;5970668;23;45274;-69
2022/11/17 06:12:26;;;;;;;0.22;0.20;;;19.00;84.10;;;;;;5982970;23;45483;-69
2022/11/17 06:14:57;;;;;;;0.47;0.30;;;19.00;84.10;;;;;;5980265;23;45458;-69
2022/11/17 06:20:53;;;;;;;0.35;0.30;;;19.00;84.20;;;;;;5972521;23;45604;-68
2022/11/17 06:23:35;;;;;;;0.10;0.10;;;19.00;84.20;;;;;;5983476;23;45405;-68
2022/11/17 06:28:50;;;;;;;0.20;0.20;;;19.00;84.30;;;;;;5973934;23;46208;-68
2022/11/17 06:31:28;;;;;;;0.65;0.43;;;19.00;84.40;;;;;;5978093;23;45520;-69
2022/11/17 06:33:59;;;;;;;1.67;0.22;;;19.00;84.20;;;;;;5988142;23;45259;-68
2022/11/17 06:36:38;;;;;;;0.20;0.20;;;19.00;84.40;;;;;;5985245;23;45284;-68
2022/11/17 06:39:05;;;;;;;0.68;0.32;;;19.00;84.40;;;;;;5971658;23;46394;-68
2022/11/17 06:41:33;;;;;;;0.65;0.30;;;19.00;84.50;;;;;;5976606;23;45578;-68
2022/11/17 06:44:01;;;;;;;0.88;0.40;;;20.20;85.50;;;;;;5979909;23;45504;-68
2022/11/17 06:46:45;;;;;;;0.90;0.50;;;19.00;84.40;;;;;;5982947;23;45664;-68
2022/11/17 06:49:12;;;;;;;0.22;0.20;;;19.00;84.50;;;;;;5972226;23;47462;-69
2022/11/17 06:51:49;;;;;;;0.10;0.10;;;19.00;84.50;;;;;;5991030;23;45347;-68
2022/11/17 06:54:33;;;;;;;0.80;0.20;;;19.00;84.50;;;;;;5972699;23;45383;-69
2022/11/17 06:57:01;;;;;;;0.60;0.38;;;19.00;84.50;;;;;;5983281;23;45687;-68
2022/11/17 06:59:37;;;;;;;0.47;0.30;;;19.00;84.50;;;;;;5970030;23;46390;-68
2022/11/17 07:02:05;;;;;;;1.95;0.25;;;19.00;84.50;;;;;;5974362;23;45363;-68
2022/11/17 07:04:31;;;;;;;0.47;0.30;;;19.00;84.60;;;;;;5978461;23;45448;-68
2022/11/17 07:07:09;;;;;;;0.30;0.30;;;19.00;84.60;;;;;;5982229;23;45419;-68
2022/11/17 07:09:36;;;;;;;0.43;0.20;;;19.00;84.50;;;;;;5974025;23;47184;-68
2022/11/17 07:12:46;;;;;;;1.23;0.35;;;19.00;84.40;;;;;;5989270;23;45444;-68
2022/11/17 07:15:26;;;;;;;0.57;0.22;;;19.00;84.50;;;;;;5975969;23;45250;-68
2022/11/17 07:18:05;;;;;;;0.55;0.30;;;19.00;84.40;;;;;;5991686;23;45763;-68
2022/11/17 07:20:32;;;;;;;0.80;0.40;;;19.00;84.30;;;;;;5969836;23;46572;-68
2022/11/17 07:23:03;;;;;;;0.52;0.30;;;19.00;84.40;;;;;;5988695;23;45416;-69
2022/11/17 07:25:41;;;;;;;1.73;0.30;;;19.00;84.30;;;;;;5979715;23;45384;-69
2022/11/17 07:28:08;;;;;;;1.30;0.28;;;19.00;84.50;;;;;;5973436;23;45331;-69
2022/11/17 07:30:36;;;;;;;1.30;0.40;;;19.00;84.50;;;;;;5987273;23;47503;-69
2022/11/17 07:33:19;;;;;;;0.60;0.30;;;19.00;84.30;;;;;;5983614;23;45327;-68
2022/11/17 07:35:49;;;;;;;0.65;0.30;;;19.00;84.30;;;;;;5971263;23;45133;-69
2022/11/17 07:38:33;;;;;;;0.55;0.30;;;19.00;84.40;;;;;;5983247;23;45374;-69
2022/11/17 07:41:14;;;;;;;0.55;0.40;;;18.90;84.20;;;;;;5990394;23;46591;-69
2022/11/17 07:43:43;;;;;;;0.80;0.43;;;18.90;84.20;;;;;;5984494;23;45383;-69
2022/11/17 07:46:16;;;;;;;0.82;0.40;;;19.00;84.50;;;;;;5984376;23;45410;-69
2022/11/17 07:48:57;;;;;;;0.40;0.35;;;19.00;84.50;;;;;;5985605;23;45615;-69
2022/11/17 07:51:25;;;;;;;1.52;0.50;;;19.00;84.60;;;;;;5976673;23;47327;-69
2022/11/17 07:54:09;;;;;;;0.68;0.22;;;19.00;84.50;;;;;;5988791;23;45226;-69
2022/11/17 07:56:39;;;;;;;1.05;0.30;;;19.00;84.50;;;;;;5987606;23;45248;-69
2022/11/17 07:59:26;;;;;;;0.57;0.30;;;19.00;84.40;;;;;;5962442;23;45380;-69
2022/11/17 08:02:09;;;;;;;0.52;0.30;;;19.00;84.50;;;;;;5974380;23;47506;-69
2022/11/17 08:04:38;;;;;;;0.60;0.15;;;19.00;84.30;;;;;;5980829;23;45334;-69
2022/11/17 08:07:19;;;;;;;0.47;0.20;;;19.00;84.30;;;;;;5960764;23;45389;-69
2022/11/17 08:09:47;;;;;;;0.35;0.30;;;19.00;84.20;;;;;;5981041;23;45466;-69
2022/11/17 08:12:26;;;;;;;1.63;0.63;;;19.00;84.30;;;;;;5994187;23;46435;-69
2022/11/17 08:15:10;;;;;;;1.25;0.40;;;19.00;84.20;;;;;;5965703;23;45463;-69
2022/11/17 08:17:43;;;;;;;0.80;0.22;;;19.00;84.20;;;;;;5971127;23;45428;-69
2022/11/17 08:20:24;;;;;;;0.10;0.10;;;19.00;84.20;;;;;;5979404;23;45644;-69
2022/11/17 08:22:59;;;;;;;0.20;0.20;;;18.90;85.20;;;;;;5993106;23;45786;-69
2022/11/17 08:25:41;;;;;;;0.75;0.28;;;19.00;84.20;;;;;;5968782;23;45630;-69
2022/11/17 08:28:22;;;;;;;1.30;0.38;;;19.00;84.30;;;;;;5963756;23;45622;-69
2022/11/17 08:31:03;;;;;;;0.60;0.40;;;19.00;84.20;;;;;;5996612;23;45367;-69
2022/11/17 08:34:01;;;;;;;0.22;0.10;;;19.00;84.20;;;;;;5977733;23;46460;-69
2022/11/17 08:36:31;;;;;;;0.65;0.30;;;19.00;84.30;;;;;;5960482;23;45190;-69
2022/11/17 08:39:42;;;;;;;1.52;0.50;;;19.00;84.20;;;;;;5972506;23;45373;-69
2022/11/17 08:42:12;;;;;;;0.55;0.28;;;18.90;83.10;;;;;;5975561;23;45221;-69
2022/11/17 08:44:44;;;;;;;2.35;0.30;;;18.90;82.60;;;;;;5980616;23;46573;-69
2022/11/17 08:47:13;;;;;;;1.52;0.40;;;18.90;82.40;;;;;;5976876;23;45515;-69
2022/11/17 08:49:41;;;;;;;0.77;0.17;;;19.00;82.20;;;;;;5985376;23;45236;-69
2022/11/17 08:52:08;;;;;;;1.17;0.40;;;18.90;82.20;;;;;;5983107;23;45528;-69
2022/11/17 08:54:35;;;;;;;0.30;0.20;;;18.90;82.60;;;;;;5984761;23;46582;-70
2022/11/17 09:00:39;;;;;;;0.30;0.20;;;18.90;83.50;;;;;;5968381;23;45344;-67
2022/11/17 09:03:22;;;;;;;1.55;0.38;;;18.90;83.80;;;;;;5970838;23;45297;-67
2022/11/17 09:05:55;;;;;;;0.90;0.20;;;18.90;83.80;;;;;;5973266;23;48288;-67
2022/11/17 09:08:24;;;;;;;0.77;0.30;;;18.80;84.00;;;;;;5973793;23;45341;-68
2022/11/17 09:11:14;;;;;;;0.47;0.28;;;18.90;83.80;;;;;;5985448;23;45318;-68
2022/11/17 09:14:26;;;;;;;0.32;0.22;;;18.90;83.90;;;;;;5976833;23;45450;-68
2022/11/17 09:16:56;;;;;;;5.90;0.75;;;18.90;84.00;;;;;;5978518;23;47513;-68
2022/11/17 09:19:23;;;;;;;5.35;0.88;;;19.00;84.20;;;;;;5970439;23;45331;-68
2022/11/17 09:22:08;;;;;;;17.25;1.27;;;19.00;83.80;;;;;;5976792;23;45433;-69
2022/11/17 09:24:38;;;;;;;15.25;1.23;;;19.10;84.00;;;;;;5985566;23;45417;-76
2022/11/17 09:27:16;;;;;;;16.70;1.63;;;19.10;85.10;;;;;;6001184;23;47546;-68
2022/11/17 09:29:43;;;;;;;18.17;1.92;;;19.30;84.70;;;;;;5978707;23;45327;-70
2022/11/17 09:32:24;;;;;;;17.75;1.20;;;19.30;85.80;;;;;;5988352;23;45260;-70
2022/11/17 09:35:08;;;;;;;5.63;1.08;;;19.30;85.00;;;;;;5981713;23;45365;-69
2022/11/17 09:38:09;;;;;;;9.32;1.02;;;19.20;84.10;;;;;;5962081;23;46448;-69
2022/11/17 09:40:51;;;;;;;3.63;0.60;;;19.20;84.00;;;;;;5967283;23;45578;-69
2022/11/17 09:43:30;;;;;;;7.43;0.95;;;19.20;84.00;;;;;;5969640;23;45590;-69
2022/11/17 10:02:24;;;;;;;5.38;1.10;;;19.20;83.70;;;;;;6144905;22;1336476;-71
2022/11/17 10:05:12;;;;;;;7.30;0.85;;;19.20;83.30;;;;;;6172510;22;45296;-70
2022/11/17 10:07:51;;;;;;;14.60;1.48;;;19.20;83.10;;;;;;6167494;22;45449;-71
2022/11/17 10:10:38;;;;;;;11.15;1.30;;;19.20;83.10;;;;;;6164352;22;47138;-71
2022/11/17 10:13:40;;;;;;;9.60;1.00;;;19.20;82.90;;;;;;6162084;22;45355;-70
2022/11/17 10:16:23;;;;;;;6.57;0.98;;;19.20;82.20;;;;;;6164197;22;45521;-72
2022/11/17 10:19:16;;;;;;;5.57;0.90;;;19.20;81.90;;;;;;6155777;22;45200;-70
2022/11/17 10:21:46;;;;;;;8.77;0.90;;;19.30;82.80;;;;;;6166482;22;46411;-70
2022/11/17 10:27:52;;;;;;;12.15;1.70;;;19.30;83.00;;;;;;6171807;22;45429;-70
2022/11/17 10:30:31;;;;;;;8.55;1.15;;;19.30;83.30;;;;;;6174334;22;45449;-71
2022/11/17 10:33:13;;;;;;;14.63;2.08;;;19.30;83.50;;;;;;6166575;22;46356;-71
2022/11/17 10:35:56;;;;;;;16.88;1.73;;;19.30;84.20;;;;;;6194472;22;45174;-67
2022/11/17 10:38:43;;;;;;;21.98;1.77;;;19.30;84.00;;;;;;6179098;22;45568;-69
2022/11/17 10:41:25;;;;;;;17.48;1.73;;;19.30;84.50;;;;;;6173586;22;45495;-70
2022/11/17 10:44:09;;;;;;;20.05;1.70;;;19.40;84.80;;;;;;6171239;22;46333;-72
2022/11/17 10:46:55;;;;;;;21.80;2.30;;;19.30;84.50;;;;;;6176488;22;45231;-71
2022/11/17 10:49:35;;;;;;;22.90;2.17;;;19.40;84.70;;;;;;6170353;22;45447;-70
2022/11/17 10:52:36;;;;;;;24.05;2.63;;;19.40;84.60;;;;;;6173964;22;45362;-69
2022/11/17 11:01:43;;;;;;;16.48;2.10;;;19.40;85.40;;;;;;6188202;22;45308;-72
2022/11/17 11:04:31;;;;;;;15.48;1.83;;;19.40;85.00;;;;;;6198773;22;45544;-72
2022/11/17 11:10:43;;;;;;;10.50;1.48;;;19.30;84.70;;;;;;6185556;22;45286;-72
2022/11/17 11:13:33;;;;;;;8.35;1.02;;;19.30;84.50;;;;;;6163177;22;45389;-70
2022/11/17 11:16:01;;;;;;;5.03;1.00;;;19.20;84.20;;;;;;6133685;22;45571;-70
2022/11/17 11:18:43;;;;;;;4.05;1.33;;;19.20;84.20;;;;;;6142461;22;45390;-70
2022/11/17 11:21:56;;;;;;;7.38;1.25;;;19.20;84.30;;;;;;6132855;22;45433;-72
2022/11/17 11:24:57;;;;;;;9.65;1.20;;;19.10;84.10;;;;;;6138815;22;45308;-72
2022/11/17 11:28:02;;;;;;;8.77;1.17;;;19.20;84.20;;;;;;6147816;22;45427;-72
2022/11/17 11:30:45;;;;;;;6.35;0.90;;;19.10;83.90;;;;;;6126674;22;47193;-72
2022/11/17 11:34:14;;;;;;;3.95;0.80;;;19.10;84.00;;;;;;6131500;22;45320;-72
2022/11/17 11:37:05;;;;;;;6.10;1.02;;;19.10;84.00;;;;;;6122942;22;45210;-72
2022/11/17 11:43:34;;;;;;;3.17;0.70;;;19.10;83.80;;;;;;6117085;22;46165;-72
2022/11/17 11:46:54;;;;;;;3.80;0.75;;;19.20;84.80;;;;;;6140404;22;45323;-72
2022/11/17 11:49:40;;;;;;;5.00;0.77;;;19.10;83.50;;;;;;6140044;22;45331;-70
2022/11/17 11:52:37;;;;;;;1.88;0.57;;;19.10;83.40;;;;;;6142011;22;45176;-72
2022/11/17 11:55:28;;;;;;;6.60;0.93;;;19.20;83.50;;;;;;6131433;22;47130;-72
2022/11/17 11:58:38;;;;;;;3.78;0.82;;;19.20;83.30;;;;;;6120612;22;45432;-72
2022/11/17 12:04:30;;;;;;;1.67;0.50;;;19.10;83.10;;;;;;6121415;22;45644;-72
2022/11/17 12:07:13;;;;;;;2.78;0.80;;;19.20;83.20;;;;;;6140627;22;46691;-72
2022/11/17 12:09:52;;;;;;;2.95;0.70;;;19.10;83.10;;;;;;6133057;22;45198;-73
2022/11/17 12:12:41;;;;;;;1.77;0.50;;;19.10;83.00;;;;;;6115067;22;45537;-72
2022/11/17 12:15:31;;;;;;;4.05;0.60;;;19.10;82.90;;;;;;6132668;22;45317;-72
2022/11/17 12:18:32;;;;;;;1.17;0.32;;;19.10;82.90;;;;;;6119654;22;46192;-72
2022/11/17 12:21:22;;;;;;;1.40;0.43;;;19.10;83.10;;;;;;6120066;22;45360;-72
2022/11/17 12:27:31;;;;;;;1.70;0.43;;;19.10;83.00;;;;;;6112099;22;45222;-72
2022/11/17 12:30:47;;;;;;;1.30;0.50;;;19.10;82.90;;;;;;6143329;22;46399;-72
2022/11/17 12:33:22;;;;;;;2.35;0.40;;;19.10;82.80;;;;;;6120862;22;45399;-71
2022/11/17 12:36:27;;;;;;;0.77;0.30;;;19.10;82.70;;;;;;6127385;22;45508;-70
2022/11/17 12:42:11;;;;;;;0.73;0.40;;;19.10;82.40;;;;;;6137116;22;46488;-70
2022/11/17 12:45:31;;;;;;;1.55;0.40;;;19.10;82.30;;;;;;6141272;22;45195;-70
2022/11/17 12:48:00;;;;;;;1.35;0.47;;;19.10;82.20;;;;;;6130636;22;45676;-69
2022/11/17 12:50:58;;;;;;;5.38;0.80;;;19.10;82.20;;;;;;6132011;22;45532;-69
2022/11/17 12:57:19;;;;;;;3.15;0.22;;;19.10;82.50;;;;;;6107125;22;45430;-69
2022/11/17 13:00:48;;;;;;;3.55;0.52;;;19.20;82.60;;;;;;6120291;22;45516;-69
2022/11/17 13:03:23;;;;;;;0.50;0.38;;;19.20;82.40;;;;;;6109934;22;45348;-69
2022/11/17 13:06:33;;;;;;;2.95;0.50;;;19.20;82.20;;;;;;6125894;22;45426;-69
2022/11/17 13:09:02;;;;;;;1.00;0.50;;;19.20;81.90;;;;;;6118758;22;45324;-69
2022/11/17 13:11:29;;;;;;;1.48;0.28;;;19.20;81.90;;;;;;6117126;22;45288;-69
2022/11/17 13:14:20;;;;;;;1.20;0.80;;;19.20;81.50;;;;;;6113505;22;45495;-69
2022/11/17 13:17:03;;;;;;;1.60;0.40;;;19.20;81.50;;;;;;6124559;22;47547;-70
2022/11/17 13:19:43;;;;;;;1.42;0.50;;;19.20;80.80;;;;;;6116631;22;45337;-70
2022/11/17 13:22:22;;;;;;;5.13;0.45;;;19.20;80.20;;;;;;6139960;22;45295;-70
2022/11/17 13:28:33;;;;;;;1.10;0.28;;;19.20;80.40;;;;;;6121988;22;46348;-70
2022/11/17 13:31:21;;;;;;;1.88;0.50;;;19.20;80.50;;;;;;6146763;22;45356;-70
2022/11/17 13:34:16;;;;;;;1.13;0.40;;;19.20;80.80;;;;;;6137864;22;45420;-69
2022/11/17 13:37:36;;;;;;;0.93;0.25;;;19.20;80.80;;;;;;6115170;22;45570;-70
2022/11/17 13:40:25;;;;;;;1.10;0.40;;;19.20;80.90;;;;;;6119156;22;46501;-70
2022/11/17 13:42:52;;;;;;;1.38;0.43;;;19.10;81.00;;;;;;6130012;22;45298;-70
2022/11/17 13:45:18;;;;;;;2.80;0.43;;;19.20;81.10;;;;;;6118125;22;45529;-70
2022/11/17 13:47:55;;;;;;;0.73;0.30;;;19.20;81.10;;;;;;6113732;22;45513;-70
2022/11/17 13:50:49;;;;;;;1.23;0.40;;;19.20;81.00;;;;;;6129019;22;46291;-70
2022/11/17 13:54:12;;;;;;;0.20;0.20;;;19.20;81.10;;;;;;6134848;22;45370;-70
2022/11/17 13:56:54;;;;;;;1.92;0.30;;;19.20;81.10;;;;;;6123405;22;45370;-70
2022/11/17 13:59:35;;;;;;;1.75;0.50;;;19.20;81.00;;;;;;6133401;22;45377;-70
2022/11/17 14:03:01;;;;;;;2.00;0.30;;;19.20;81.00;;;;;;6141510;22;46110;-70
2022/11/17 14:06:11;;;;;;;0.95;0.40;;;19.20;81.00;;;;;;6137640;22;45274;-70
2022/11/17 14:09:04;;;;;;;1.27;0.35;;;19.20;80.80;;;;;;6139403;22;45568;-70
2022/11/17 14:11:44;;;;;;;0.98;0.30;;;19.20;80.90;;;;;;6129465;22;45207;-70
2022/11/17 14:14:23;;;;;;;1.17;0.38;;;19.20;80.80;;;;;;6118628;22;46270;-70
2022/11/17 14:17:18;;;;;;;1.75;0.50;;;19.20;80.80;;;;;;6131704;22;45604;-70
2022/11/17 14:19:46;;;;;;;2.15;0.40;;;19.20;80.80;;;;;;6127833;22;45329;-70
2022/11/17 14:22:31;;;;;;;0.85;0.40;;;19.20;80.80;;;;;;6119686;22;45252;-70
2022/11/17 14:28:24;;;;;;;0.15;0.15;;;19.20;80.70;;;;;;6102768;22;45453;-70
2022/11/17 14:31:06;;;;;;;1.98;0.40;;;19.20;80.80;;;;;;6126204;22;45263;-70
2022/11/17 14:33:33;;;;;;;1.08;0.32;;;19.20;80.70;;;;;;6131836;22;45265;-70
2022/11/17 14:36:21;;;;;;;0.88;0.25;;;19.20;80.80;;;;;;6136786;22;46393;-70
2022/11/17 14:39:10;;;;;;;3.17;0.60;;;19.20;80.90;;;;;;6121972;22;45285;-70
2022/11/17 14:41:49;;;;;;;1.40;0.50;;;19.20;80.80;;;;;;6120540;22;45405;-70
2022/11/17 14:44:16;;;;;;;0.45;0.28;;;19.20;81.10;;;;;;6116957;22;45423;-70
2022/11/17 14:46:59;;;;;;;0.30;0.20;;;19.20;81.00;;;;;;6129837;22;47630;-70
2022/11/17 14:49:42;;;;;;;0.95;0.20;;;19.20;81.00;;;;;;6115080;22;45325;-70
2022/11/17 14:52:35;;;;;;;0.47;0.30;;;19.20;81.00;;;;;;6124498;22;45318;-70
2022/11/17 14:55:02;;;;;;;1.15;0.40;;;19.20;80.90;;;;;;6125664;22;45514;-70
2022/11/17 14:57:29;;;;;;;0.80;0.50;;;19.20;80.90;;;;;;6118384;22;47477;-70
2022/11/17 15:00:11;;;;;;;0.30;0.20;;;19.20;80.80;;;;;;6126657;22;45416;-70
2022/11/17 15:02:50;;;;;;;0.55;0.30;;;19.20;80.80;;;;;;6119909;22;45259;-70
2022/11/17 15:05:17;;;;;;;1.35;0.30;;;19.20;80.70;;;;;;6136330;22;45304;-70
2022/11/17 15:07:58;;;;;;;0.75;0.30;;;19.20;80.60;;;;;;6115719;22;46223;-70
2022/11/17 15:10:36;;;;;;;0.65;0.30;;;19.20;80.60;;;;;;6117583;22;45531;-70
2022/11/17 15:13:18;;;;;;;0.35;0.20;;;19.20;80.40;;;;;;6134759;22;45362;-70
2022/11/17 15:16:40;;;;;;;0.70;0.20;;;19.20;80.50;;;;;;6136255;22;45189;-70
2022/11/17 15:19:18;;;;;;;0.75;0.45;;;19.20;80.50;;;;;;6148263;22;47303;-70
2022/11/17 15:21:57;;;;;;;2.38;0.30;;;19.20;80.40;;;;;;6129752;22;45402;-70
2022/11/17 15:24:23;;;;;;;1.20;0.30;;;19.20;80.40;;;;;;6121590;22;45379;-70
2022/11/17 15:26:50;;;;;;;0.80;0.30;;;19.20;80.40;;;;;;6131637;22;45562;-70
2022/11/17 15:29:34;;;;;;;0.35;0.20;;;19.20;80.30;;;;;;6121317;22;46216;-70
2022/11/17 15:32:14;;;;;;;0.22;0.13;;;19.20;80.30;;;;;;6143774;22;45392;-70
2022/11/17 15:34:42;;;;;;;0.52;0.30;;;19.20;80.40;;;;;;6131132;22;45181;-70
2022/11/17 15:37:34;;;;;;;0.30;0.20;;;19.20;80.20;;;;;;6120825;22;45583;-70
2022/11/17 15:40:01;;;;;;;0.52;0.22;;;19.20;80.50;;;;;;6126377;22;47673;-70
2022/11/17 15:42:39;;;;;;;0.38;0.10;;;19.20;80.50;;;;;;6129994;22;45444;-70
2022/11/17 15:46:00;;;;;;;0.60;0.20;;;19.10;80.30;;;;;;6129875;22;45508;-70
2022/11/17 15:48:33;;;;;;;0.50;0.30;;;19.20;80.50;;;;;;6136689;22;45360;-70
2022/11/17 15:51:07;;;;;;;0.55;0.20;;;19.20;80.50;;;;;;6121938;22;45701;-70
2022/11/17 15:53:45;;;;;;;2.42;0.40;;;19.20;80.70;;;;;;6137139;22;45393;-70
2022/11/17 15:56:35;;;;;;;0.10;0.10;;;19.20;80.80;;;;;;6135220;22;45241;-70
2022/11/17 15:59:18;;;;;;;0.70;0.38;;;19.10;80.50;;;;;;6120851;22;45740;-70
2022/11/17 16:01:45;;;;;;;0.20;0.10;;;19.20;80.50;;;;;;6135703;22;47684;-70
2022/11/17 16:04:14;;;;;;;0.80;0.30;;;19.20;80.50;;;;;;6124358;22;45269;-69
2022/11/17 16:06:54;;;;;;;1.42;0.20;;;19.20;80.50;;;;;;6148735;22;45334;-70